sensor_id;sensor_type;location;lat;lon;timestamp;P1;durP1;ratioP1;P2;durP2;ratioP2
21152;SDS011;10734;44.792;20.482;2023-07-29T00:01:07;7.07;;;4.05;;
21152;SDS011;10734;44.792;20.482;2023-07-29T00:03:33;8.25;;;4.60;;
21152;SDS011;10734;44.792;20.482;2023-07-29T00:06:00;9.60;;;5.13;;
21152;SDS011;10734;44.792;20.482;2023-07-29T00:08:26;7.88;;;4.63;;
21152;SDS011;10734;44.792;20.482;2023-07-29T00:10:53;6.53;;;4.65;;
21152;SDS011;10734;44.792;20.482;2023-07-29T00:13:19;10.10;;;5.13;;
21152;SDS011;10734;44.792;20.482;2023-07-29T00:15:47;7.90;;;5.45;;
21152;SDS011;10734;44.792;20.482;2023-07-29T00:18:14;8.60;;;5.75;;
21152;SDS011;10734;44.792;20.482;2023-07-29T00:20:40;10.50;;;5.53;;
21152;SDS011;10734;44.792;20.482;2023-07-29T00:23:07;9.40;;;4.93;;
21152;SDS011;10734;44.792;20.482;2023-07-29T00:25:34;8.35;;;5.03;;
21152;SDS011;10734;44.792;20.482;2023-07-29T00:28:00;9.60;;;5.28;;
21152;SDS011;10734;44.792;20.482;2023-07-29T00:30:27;9.32;;;5.10;;
21152;SDS011;10734;44.792;20.482;2023-07-29T00:32:54;9.82;;;5.25;;
21152;SDS011;10734;44.792;20.482;2023-07-29T00:35:20;9.13;;;5.10;;
21152;SDS011;10734;44.792;20.482;2023-07-29T00:37:47;6.05;;;4.63;;
21152;SDS011;10734;44.792;20.482;2023-07-29T00:40:19;8.45;;;5.10;;
21152;SDS011;10734;44.792;20.482;2023-07-29T00:42:46;11.30;;;5.00;;
21152;SDS011;10734;44.792;20.482;2023-07-29T00:45:12;9.90;;;5.35;;
21152;SDS011;10734;44.792;20.482;2023-07-29T00:47:39;15.43;;;7.05;;
21152;SDS011;10734;44.792;20.482;2023-07-29T00:50:07;11.93;;;5.30;;
21152;SDS011;10734;44.792;20.482;2023-07-29T00:52:36;10.18;;;5.57;;
21152;SDS011;10734;44.792;20.482;2023-07-29T00:55:03;9.85;;;5.40;;
21152;SDS011;10734;44.792;20.482;2023-07-29T00:57:30;9.15;;;5.57;;
21152;SDS011;10734;44.792;20.482;2023-07-29T00:59:57;10.95;;;5.07;;
21152;SDS011;10734;44.792;20.482;2023-07-29T01:02:24;9.80;;;5.13;;
21152;SDS011;10734;44.792;20.482;2023-07-29T01:04:52;8.20;;;4.75;;
21152;SDS011;10734;44.792;20.482;2023-07-29T01:07:24;7.20;;;4.32;;
21152;SDS011;10734;44.792;20.482;2023-07-29T01:09:58;8.32;;;4.68;;
21152;SDS011;10734;44.792;20.482;2023-07-29T01:12:35;13.13;;;4.93;;
21152;SDS011;10734;44.792;20.482;2023-07-29T01:15:22;9.90;;;5.22;;
21152;SDS011;10734;44.792;20.482;2023-07-29T01:18:08;7.72;;;4.55;;
21152;SDS011;10734;44.792;20.482;2023-07-29T01:20:36;6.57;;;3.80;;
21152;SDS011;10734;44.792;20.482;2023-07-29T01:23:03;8.77;;;4.47;;
21152;SDS011;10734;44.792;20.482;2023-07-29T01:25:30;10.15;;;4.53;;
21152;SDS011;10734;44.792;20.482;2023-07-29T01:27:56;9.07;;;4.22;;
21152;SDS011;10734;44.792;20.482;2023-07-29T01:30:26;8.05;;;4.18;;
21152;SDS011;10734;44.792;20.482;2023-07-29T01:35:23;6.43;;;4.40;;
21152;SDS011;10734;44.792;20.482;2023-07-29T01:37:52;7.50;;;4.50;;
21152;SDS011;10734;44.792;20.482;2023-07-29T01:40:19;7.25;;;3.80;;
21152;SDS011;10734;44.792;20.482;2023-07-29T01:42:47;6.90;;;4.43;;
21152;SDS011;10734;44.792;20.482;2023-07-29T01:45:13;9.07;;;4.22;;
21152;SDS011;10734;44.792;20.482;2023-07-29T01:47:40;4.72;;;3.65;;
21152;SDS011;10734;44.792;20.482;2023-07-29T01:50:08;7.32;;;4.53;;
21152;SDS011;10734;44.792;20.482;2023-07-29T01:52:34;7.20;;;3.65;;
21152;SDS011;10734;44.792;20.482;2023-07-29T01:55:02;7.68;;;4.00;;
21152;SDS011;10734;44.792;20.482;2023-07-29T01:57:28;9.40;;;4.57;;
21152;SDS011;10734;44.792;20.482;2023-07-29T01:59:54;7.28;;;4.45;;
21152;SDS011;10734;44.792;20.482;2023-07-29T02:02:21;8.70;;;4.57;;
21152;SDS011;10734;44.792;20.482;2023-07-29T02:04:48;11.10;;;4.32;;
21152;SDS011;10734;44.792;20.482;2023-07-29T02:07:18;8.50;;;3.97;;
21152;SDS011;10734;44.792;20.482;2023-07-29T02:09:45;4.32;;;3.90;;
21152;SDS011;10734;44.792;20.482;2023-07-29T02:12:12;4.90;;;3.67;;
21152;SDS011;10734;44.792;20.482;2023-07-29T02:14:38;5.97;;;4.10;;
21152;SDS011;10734;44.792;20.482;2023-07-29T02:17:05;6.90;;;3.63;;
21152;SDS011;10734;44.792;20.482;2023-07-29T02:19:31;8.38;;;4.32;;
21152;SDS011;10734;44.792;20.482;2023-07-29T02:21:58;7.70;;;4.05;;
21152;SDS011;10734;44.792;20.482;2023-07-29T02:24:24;6.55;;;3.63;;
21152;SDS011;10734;44.792;20.482;2023-07-29T02:26:51;7.43;;;3.90;;
21152;SDS011;10734;44.792;20.482;2023-07-29T02:29:17;6.85;;;3.97;;
21152;SDS011;10734;44.792;20.482;2023-07-29T02:31:44;8.13;;;4.53;;
21152;SDS011;10734;44.792;20.482;2023-07-29T02:34:11;7.28;;;4.60;;
21152;SDS011;10734;44.792;20.482;2023-07-29T02:36:37;7.18;;;4.28;;
21152;SDS011;10734;44.792;20.482;2023-07-29T02:39:04;6.78;;;3.88;;
21152;SDS011;10734;44.792;20.482;2023-07-29T02:41:31;5.88;;;4.13;;
21152;SDS011;10734;44.792;20.482;2023-07-29T02:43:57;9.50;;;4.22;;
21152;SDS011;10734;44.792;20.482;2023-07-29T02:46:24;9.45;;;4.53;;
21152;SDS011;10734;44.792;20.482;2023-07-29T02:48:50;8.00;;;4.47;;
21152;SDS011;10734;44.792;20.482;2023-07-29T02:51:17;9.68;;;4.07;;
21152;SDS011;10734;44.792;20.482;2023-07-29T02:53:43;8.15;;;4.38;;
21152;SDS011;10734;44.792;20.482;2023-07-29T02:56:10;5.22;;;3.75;;
21152;SDS011;10734;44.792;20.482;2023-07-29T02:58:38;6.55;;;4.45;;
21152;SDS011;10734;44.792;20.482;2023-07-29T03:01:05;9.32;;;4.22;;
21152;SDS011;10734;44.792;20.482;2023-07-29T03:03:32;8.05;;;4.50;;
21152;SDS011;10734;44.792;20.482;2023-07-29T03:08:25;7.80;;;4.70;;
21152;SDS011;10734;44.792;20.482;2023-07-29T03:10:52;5.63;;;3.67;;
21152;SDS011;10734;44.792;20.482;2023-07-29T03:13:18;6.65;;;4.03;;
21152;SDS011;10734;44.792;20.482;2023-07-29T03:15:45;9.05;;;4.82;;
21152;SDS011;10734;44.792;20.482;2023-07-29T03:18:11;9.63;;;4.53;;
21152;SDS011;10734;44.792;20.482;2023-07-29T03:20:38;5.82;;;4.20;;
21152;SDS011;10734;44.792;20.482;2023-07-29T03:23:04;6.00;;;3.90;;
21152;SDS011;10734;44.792;20.482;2023-07-29T03:25:31;9.25;;;4.50;;
21152;SDS011;10734;44.792;20.482;2023-07-29T03:27:57;6.90;;;4.00;;
21152;SDS011;10734;44.792;20.482;2023-07-29T03:30:24;6.82;;;3.72;;
21152;SDS011;10734;44.792;20.482;2023-07-29T03:32:50;9.07;;;4.47;;
21152;SDS011;10734;44.792;20.482;2023-07-29T03:35:17;9.80;;;4.43;;
21152;SDS011;10734;44.792;20.482;2023-07-29T03:37:44;8.00;;;3.90;;
21152;SDS011;10734;44.792;20.482;2023-07-29T03:40:10;6.65;;;4.18;;
21152;SDS011;10734;44.792;20.482;2023-07-29T03:42:37;10.23;;;3.92;;
21152;SDS011;10734;44.792;20.482;2023-07-29T03:45:04;10.48;;;4.53;;
21152;SDS011;10734;44.792;20.482;2023-07-29T03:47:30;6.88;;;4.38;;
21152;SDS011;10734;44.792;20.482;2023-07-29T03:49:57;10.00;;;3.97;;
21152;SDS011;10734;44.792;20.482;2023-07-29T03:52:24;5.93;;;3.40;;
21152;SDS011;10734;44.792;20.482;2023-07-29T03:54:50;6.53;;;3.47;;
21152;SDS011;10734;44.792;20.482;2023-07-29T03:57:17;5.78;;;3.53;;
21152;SDS011;10734;44.792;20.482;2023-07-29T03:59:43;5.97;;;3.80;;
21152;SDS011;10734;44.792;20.482;2023-07-29T04:02:10;8.77;;;3.60;;
21152;SDS011;10734;44.792;20.482;2023-07-29T04:04:36;7.70;;;3.55;;
21152;SDS011;10734;44.792;20.482;2023-07-29T04:07:03;4.68;;;3.08;;
21152;SDS011;10734;44.792;20.482;2023-07-29T04:09:30;6.05;;;3.55;;
21152;SDS011;10734;44.792;20.482;2023-07-29T04:11:56;4.25;;;3.40;;
21152;SDS011;10734;44.792;20.482;2023-07-29T04:14:23;8.07;;;3.50;;
21152;SDS011;10734;44.792;20.482;2023-07-29T04:16:50;6.20;;;3.80;;
21152;SDS011;10734;44.792;20.482;2023-07-29T04:19:16;11.10;;;3.72;;
21152;SDS011;10734;44.792;20.482;2023-07-29T04:21:43;4.20;;;3.08;;
21152;SDS011;10734;44.792;20.482;2023-07-29T04:24:09;5.28;;;3.65;;
21152;SDS011;10734;44.792;20.482;2023-07-29T04:26:36;8.52;;;3.00;;
21152;SDS011;10734;44.792;20.482;2023-07-29T04:29:03;5.80;;;3.00;;
21152;SDS011;10734;44.792;20.482;2023-07-29T04:31:30;4.03;;;3.10;;
21152;SDS011;10734;44.792;20.482;2023-07-29T04:33:56;5.68;;;2.92;;
21152;SDS011;10734;44.792;20.482;2023-07-29T04:36:23;4.20;;;3.20;;
21152;SDS011;10734;44.792;20.482;2023-07-29T04:38:49;7.88;;;3.63;;
21152;SDS011;10734;44.792;20.482;2023-07-29T04:41:16;5.80;;;2.72;;
21152;SDS011;10734;44.792;20.482;2023-07-29T04:43:42;4.57;;;3.10;;
21152;SDS011;10734;44.792;20.482;2023-07-29T04:46:09;4.85;;;3.15;;
21152;SDS011;10734;44.792;20.482;2023-07-29T04:48:36;5.97;;;3.40;;
21152;SDS011;10734;44.792;20.482;2023-07-29T04:51:03;8.60;;;3.50;;
21152;SDS011;10734;44.792;20.482;2023-07-29T04:53:34;5.53;;;3.13;;
21152;SDS011;10734;44.792;20.482;2023-07-29T04:56:04;5.88;;;3.60;;
21152;SDS011;10734;44.792;20.482;2023-07-29T04:58:32;7.15;;;3.40;;
21152;SDS011;10734;44.792;20.482;2023-07-29T05:01:05;6.35;;;3.85;;
21152;SDS011;10734;44.792;20.482;2023-07-29T05:03:36;7.50;;;3.88;;
21152;SDS011;10734;44.792;20.482;2023-07-29T05:06:03;6.47;;;4.25;;
21152;SDS011;10734;44.792;20.482;2023-07-29T05:08:30;6.93;;;3.70;;
21152;SDS011;10734;44.792;20.482;2023-07-29T05:10:56;4.55;;;3.35;;
21152;SDS011;10734;44.792;20.482;2023-07-29T05:13:23;6.25;;;3.05;;
21152;SDS011;10734;44.792;20.482;2023-07-29T05:15:50;10.18;;;3.20;;
21152;SDS011;10734;44.792;20.482;2023-07-29T05:18:17;6.53;;;3.40;;
21152;SDS011;10734;44.792;20.482;2023-07-29T05:20:44;4.80;;;2.88;;
21152;SDS011;10734;44.792;20.482;2023-07-29T05:23:11;3.70;;;3.20;;
21152;SDS011;10734;44.792;20.482;2023-07-29T05:25:37;6.88;;;3.05;;
21152;SDS011;10734;44.792;20.482;2023-07-29T05:28:04;8.95;;;3.05;;
21152;SDS011;10734;44.792;20.482;2023-07-29T05:30:31;7.30;;;2.97;;
21152;SDS011;10734;44.792;20.482;2023-07-29T05:33:00;6.90;;;2.95;;
21152;SDS011;10734;44.792;20.482;2023-07-29T05:35:28;5.03;;;2.95;;
21152;SDS011;10734;44.792;20.482;2023-07-29T05:37:56;6.30;;;3.03;;
21152;SDS011;10734;44.792;20.482;2023-07-29T05:40:24;4.65;;;2.58;;
21152;SDS011;10734;44.792;20.482;2023-07-29T05:42:52;6.00;;;2.72;;
21152;SDS011;10734;44.792;20.482;2023-07-29T05:45:21;5.68;;;2.92;;
21152;SDS011;10734;44.792;20.482;2023-07-29T05:47:57;5.05;;;3.40;;
21152;SDS011;10734;44.792;20.482;2023-07-29T05:50:26;5.85;;;4.03;;
21152;SDS011;10734;44.792;20.482;2023-07-29T05:52:58;11.57;;;4.40;;
21152;SDS011;10734;44.792;20.482;2023-07-29T05:55:26;6.95;;;3.95;;
21152;SDS011;10734;44.792;20.482;2023-07-29T05:57:54;12.40;;;4.32;;
21152;SDS011;10734;44.792;20.482;2023-07-29T06:00:23;7.40;;;3.10;;
21152;SDS011;10734;44.792;20.482;2023-07-29T06:02:51;7.15;;;3.17;;
21152;SDS011;10734;44.792;20.482;2023-07-29T06:05:20;15.63;;;3.75;;
21152;SDS011;10734;44.792;20.482;2023-07-29T06:07:49;7.40;;;3.25;;
21152;SDS011;10734;44.792;20.482;2023-07-29T06:10:17;10.13;;;3.95;;
21152;SDS011;10734;44.792;20.482;2023-07-29T06:12:46;7.00;;;3.40;;
21152;SDS011;10734;44.792;20.482;2023-07-29T06:15:14;8.38;;;3.75;;
21152;SDS011;10734;44.792;20.482;2023-07-29T06:17:41;8.68;;;3.35;;
21152;SDS011;10734;44.792;20.482;2023-07-29T06:20:10;8.73;;;3.08;;
21152;SDS011;10734;44.792;20.482;2023-07-29T06:22:38;7.63;;;3.25;;
21152;SDS011;10734;44.792;20.482;2023-07-29T06:25:07;6.13;;;3.22;;
21152;SDS011;10734;44.792;20.482;2023-07-29T06:27:35;7.57;;;3.53;;
21152;SDS011;10734;44.792;20.482;2023-07-29T06:30:02;12.10;;;3.63;;
21152;SDS011;10734;44.792;20.482;2023-07-29T06:32:31;4.97;;;3.08;;
21152;SDS011;10734;44.792;20.482;2023-07-29T06:34:58;12.27;;;3.92;;
21152;SDS011;10734;44.792;20.482;2023-07-29T06:37:24;4.85;;;2.78;;
21152;SDS011;10734;44.792;20.482;2023-07-29T06:39:51;9.07;;;4.03;;
21152;SDS011;10734;44.792;20.482;2023-07-29T06:42:18;6.25;;;2.90;;
21152;SDS011;10734;44.792;20.482;2023-07-29T06:44:46;9.18;;;3.60;;
21152;SDS011;10734;44.792;20.482;2023-07-29T06:47:13;6.55;;;3.50;;
21152;SDS011;10734;44.792;20.482;2023-07-29T06:49:39;7.75;;;2.67;;
21152;SDS011;10734;44.792;20.482;2023-07-29T06:52:06;8.23;;;3.25;;
21152;SDS011;10734;44.792;20.482;2023-07-29T06:54:33;8.80;;;3.42;;
21152;SDS011;10734;44.792;20.482;2023-07-29T06:57:00;5.43;;;3.22;;
21152;SDS011;10734;44.792;20.482;2023-07-29T06:59:27;9.20;;;3.28;;
21152;SDS011;10734;44.792;20.482;2023-07-29T07:01:53;5.40;;;3.45;;
21152;SDS011;10734;44.792;20.482;2023-07-29T07:04:20;6.53;;;3.20;;
21152;SDS011;10734;44.792;20.482;2023-07-29T07:06:47;9.75;;;3.30;;
21152;SDS011;10734;44.792;20.482;2023-07-29T07:09:13;4.40;;;3.30;;
21152;SDS011;10734;44.792;20.482;2023-07-29T07:11:40;3.92;;;2.88;;
21152;SDS011;10734;44.792;20.482;2023-07-29T07:14:07;8.40;;;3.25;;
21152;SDS011;10734;44.792;20.482;2023-07-29T07:16:34;5.63;;;2.85;;
21152;SDS011;10734;44.792;20.482;2023-07-29T07:19:03;9.52;;;3.42;;
21152;SDS011;10734;44.792;20.482;2023-07-29T07:21:29;5.00;;;3.55;;
21152;SDS011;10734;44.792;20.482;2023-07-29T07:23:56;5.80;;;3.30;;
21152;SDS011;10734;44.792;20.482;2023-07-29T07:26:23;9.32;;;3.65;;
21152;SDS011;10734;44.792;20.482;2023-07-29T07:28:50;6.43;;;3.38;;
21152;SDS011;10734;44.792;20.482;2023-07-29T07:31:17;5.78;;;3.25;;
21152;SDS011;10734;44.792;20.482;2023-07-29T07:33:46;7.43;;;3.10;;
21152;SDS011;10734;44.792;20.482;2023-07-29T07:36:12;11.23;;;3.75;;
21152;SDS011;10734;44.792;20.482;2023-07-29T07:38:39;10.13;;;3.15;;
21152;SDS011;10734;44.792;20.482;2023-07-29T07:41:06;10.10;;;3.08;;
21152;SDS011;10734;44.792;20.482;2023-07-29T07:43:33;5.90;;;3.10;;
21152;SDS011;10734;44.792;20.482;2023-07-29T07:46:00;6.15;;;2.80;;
21152;SDS011;10734;44.792;20.482;2023-07-29T07:48:28;9.10;;;3.20;;
21152;SDS011;10734;44.792;20.482;2023-07-29T07:50:55;9.57;;;3.65;;
21152;SDS011;10734;44.792;20.482;2023-07-29T07:53:21;5.20;;;3.10;;
21152;SDS011;10734;44.792;20.482;2023-07-29T07:55:48;9.65;;;3.63;;
21152;SDS011;10734;44.792;20.482;2023-07-29T07:58:15;5.25;;;2.85;;
21152;SDS011;10734;44.792;20.482;2023-07-29T08:00:42;7.68;;;3.20;;
21152;SDS011;10734;44.792;20.482;2023-07-29T08:03:09;11.32;;;3.45;;
21152;SDS011;10734;44.792;20.482;2023-07-29T08:05:36;3.03;;;2.55;;
21152;SDS011;10734;44.792;20.482;2023-07-29T08:08:03;5.82;;;2.92;;
21152;SDS011;10734;44.792;20.482;2023-07-29T08:10:29;7.93;;;3.30;;
21152;SDS011;10734;44.792;20.482;2023-07-29T08:12:56;4.40;;;3.22;;
21152;SDS011;10734;44.792;20.482;2023-07-29T08:15:23;7.65;;;3.35;;
21152;SDS011;10734;44.792;20.482;2023-07-29T08:17:50;4.07;;;2.90;;
21152;SDS011;10734;44.792;20.482;2023-07-29T08:20:16;6.25;;;3.33;;
21152;SDS011;10734;44.792;20.482;2023-07-29T08:22:43;6.05;;;3.00;;
21152;SDS011;10734;44.792;20.482;2023-07-29T08:25:10;4.07;;;2.50;;
21152;SDS011;10734;44.792;20.482;2023-07-29T08:27:37;8.80;;;3.00;;
21152;SDS011;10734;44.792;20.482;2023-07-29T08:30:04;5.75;;;3.03;;
21152;SDS011;10734;44.792;20.482;2023-07-29T08:32:31;7.35;;;3.20;;
21152;SDS011;10734;44.792;20.482;2023-07-29T08:34:58;5.95;;;3.17;;
21152;SDS011;10734;44.792;20.482;2023-07-29T08:37:25;8.20;;;2.92;;
21152;SDS011;10734;44.792;20.482;2023-07-29T08:39:53;10.75;;;3.40;;
21152;SDS011;10734;44.792;20.482;2023-07-29T08:42:23;6.15;;;3.30;;
21152;SDS011;10734;44.792;20.482;2023-07-29T08:44:53;4.70;;;2.92;;
21152;SDS011;10734;44.792;20.482;2023-07-29T08:47:21;3.83;;;2.88;;
21152;SDS011;10734;44.792;20.482;2023-07-29T08:49:48;4.55;;;2.80;;
21152;SDS011;10734;44.792;20.482;2023-07-29T08:52:18;7.32;;;2.95;;
21152;SDS011;10734;44.792;20.482;2023-07-29T08:54:46;7.82;;;3.25;;
21152;SDS011;10734;44.792;20.482;2023-07-29T08:57:13;5.50;;;3.22;;
21152;SDS011;10734;44.792;20.482;2023-07-29T08:59:41;5.32;;;3.05;;
21152;SDS011;10734;44.792;20.482;2023-07-29T09:02:08;8.30;;;2.78;;
21152;SDS011;10734;44.792;20.482;2023-07-29T09:04:35;4.65;;;3.10;;
21152;SDS011;10734;44.792;20.482;2023-07-29T09:07:01;5.22;;;3.20;;
21152;SDS011;10734;44.792;20.482;2023-07-29T09:09:30;4.60;;;2.60;;
21152;SDS011;10734;44.792;20.482;2023-07-29T09:11:57;6.53;;;3.35;;
21152;SDS011;10734;44.792;20.482;2023-07-29T09:14:23;4.97;;;2.90;;
21152;SDS011;10734;44.792;20.482;2023-07-29T09:16:50;4.68;;;3.22;;
21152;SDS011;10734;44.792;20.482;2023-07-29T09:19:19;6.70;;;2.75;;
21152;SDS011;10734;44.792;20.482;2023-07-29T09:21:47;5.95;;;2.75;;
21152;SDS011;10734;44.792;20.482;2023-07-29T09:24:15;7.40;;;3.10;;
21152;SDS011;10734;44.792;20.482;2023-07-29T09:26:50;3.03;;;2.55;;
21152;SDS011;10734;44.792;20.482;2023-07-29T09:29:23;5.90;;;2.88;;
21152;SDS011;10734;44.792;20.482;2023-07-29T09:31:54;8.63;;;2.80;;
21152;SDS011;10734;44.792;20.482;2023-07-29T09:34:45;5.25;;;2.67;;
21152;SDS011;10734;44.792;20.482;2023-07-29T09:37:31;6.53;;;3.20;;
21152;SDS011;10734;44.792;20.482;2023-07-29T09:39:58;3.70;;;2.58;;
21152;SDS011;10734;44.792;20.482;2023-07-29T09:42:25;7.13;;;2.90;;
21152;SDS011;10734;44.792;20.482;2023-07-29T09:44:52;5.68;;;2.97;;
21152;SDS011;10734;44.792;20.482;2023-07-29T09:47:20;11.98;;;3.13;;
21152;SDS011;10734;44.792;20.482;2023-07-29T09:49:52;5.00;;;2.55;;
21152;SDS011;10734;44.792;20.482;2023-07-29T09:52:20;3.85;;;2.80;;
21152;SDS011;10734;44.792;20.482;2023-07-29T09:54:49;9.85;;;2.90;;
21152;SDS011;10734;44.792;20.482;2023-07-29T09:57:17;4.38;;;2.63;;
21152;SDS011;10734;44.792;20.482;2023-07-29T09:59:57;5.95;;;2.88;;
21152;SDS011;10734;44.792;20.482;2023-07-29T10:02:24;3.83;;;2.45;;
21152;SDS011;10734;44.792;20.482;2023-07-29T10:04:54;3.08;;;2.03;;
21152;SDS011;10734;44.792;20.482;2023-07-29T10:07:21;3.55;;;2.42;;
21152;SDS011;10734;44.792;20.482;2023-07-29T10:09:48;4.47;;;2.80;;
21152;SDS011;10734;44.792;20.482;2023-07-29T10:12:19;8.75;;;2.67;;
21152;SDS011;10734;44.792;20.482;2023-07-29T10:14:46;3.60;;;2.75;;
21152;SDS011;10734;44.792;20.482;2023-07-29T10:17:15;4.22;;;2.65;;
21152;SDS011;10734;44.792;20.482;2023-07-29T10:19:42;6.97;;;2.47;;
21152;SDS011;10734;44.792;20.482;2023-07-29T10:22:11;3.80;;;2.80;;
21152;SDS011;10734;44.792;20.482;2023-07-29T10:24:39;4.53;;;2.60;;
21152;SDS011;10734;44.792;20.482;2023-07-29T10:27:09;3.40;;;2.60;;
21152;SDS011;10734;44.792;20.482;2023-07-29T10:29:39;4.45;;;2.58;;
21152;SDS011;10734;44.792;20.482;2023-07-29T10:32:11;4.20;;;2.80;;
21152;SDS011;10734;44.792;20.482;2023-07-29T10:34:38;4.50;;;2.60;;
21152;SDS011;10734;44.792;20.482;2023-07-29T10:37:06;6.50;;;2.97;;
21152;SDS011;10734;44.792;20.482;2023-07-29T10:39:40;5.32;;;2.95;;
21152;SDS011;10734;44.792;20.482;2023-07-29T10:42:17;4.07;;;2.58;;
21152;SDS011;10734;44.792;20.482;2023-07-29T10:44:46;4.25;;;3.05;;
21152;SDS011;10734;44.792;20.482;2023-07-29T10:47:25;11.70;;;4.15;;
21152;SDS011;10734;44.792;20.482;2023-07-29T10:49:57;6.28;;;3.13;;
21152;SDS011;10734;44.792;20.482;2023-07-29T10:52:42;5.57;;;3.17;;
21152;SDS011;10734;44.792;20.482;2023-07-29T10:55:25;9.85;;;3.80;;
21152;SDS011;10734;44.792;20.482;2023-07-29T10:58:06;9.98;;;3.72;;
21152;SDS011;10734;44.792;20.482;2023-07-29T11:00:43;8.25;;;3.83;;
21152;SDS011;10734;44.792;20.482;2023-07-29T11:05:48;10.95;;;3.45;;
21152;SDS011;10734;44.792;20.482;2023-07-29T11:08:20;8.75;;;3.92;;
21152;SDS011;10734;44.792;20.482;2023-07-29T11:10:58;10.23;;;4.10;;
21152;SDS011;10734;44.792;20.482;2023-07-29T11:13:29;7.25;;;3.45;;
21152;SDS011;10734;44.792;20.482;2023-07-29T11:15:57;7.43;;;4.22;;
21152;SDS011;10734;44.792;20.482;2023-07-29T11:18:26;6.93;;;4.00;;
21152;SDS011;10734;44.792;20.482;2023-07-29T11:21:02;10.55;;;4.13;;
21152;SDS011;10734;44.792;20.482;2023-07-29T11:23:31;11.60;;;4.03;;
21152;SDS011;10734;44.792;20.482;2023-07-29T11:26:00;7.40;;;3.67;;
21152;SDS011;10734;44.792;20.482;2023-07-29T11:28:28;7.68;;;3.97;;
21152;SDS011;10734;44.792;20.482;2023-07-29T11:30:56;7.63;;;3.33;;
21152;SDS011;10734;44.792;20.482;2023-07-29T11:33:24;7.72;;;4.03;;
21152;SDS011;10734;44.792;20.482;2023-07-29T11:35:52;8.32;;;3.88;;
21152;SDS011;10734;44.792;20.482;2023-07-29T11:38:19;11.80;;;3.42;;
21152;SDS011;10734;44.792;20.482;2023-07-29T11:40:54;4.88;;;3.38;;
21152;SDS011;10734;44.792;20.482;2023-07-29T11:43:29;4.82;;;3.38;;
21152;SDS011;10734;44.792;20.482;2023-07-29T11:45:56;5.97;;;2.97;;
21152;SDS011;10734;44.792;20.482;2023-07-29T11:48:27;7.82;;;2.83;;
21152;SDS011;10734;44.792;20.482;2023-07-29T11:50:55;7.20;;;3.35;;
21152;SDS011;10734;44.792;20.482;2023-07-29T11:53:21;7.88;;;3.35;;
21152;SDS011;10734;44.792;20.482;2023-07-29T11:55:51;3.10;;;2.72;;
21152;SDS011;10734;44.792;20.482;2023-07-29T11:58:20;8.90;;;3.63;;
21152;SDS011;10734;44.792;20.482;2023-07-29T12:00:47;5.50;;;3.40;;
21152;SDS011;10734;44.792;20.482;2023-07-29T12:03:14;4.03;;;2.78;;
21152;SDS011;10734;44.792;20.482;2023-07-29T12:05:44;4.30;;;2.75;;
21152;SDS011;10734;44.792;20.482;2023-07-29T12:08:11;5.70;;;3.00;;
21152;SDS011;10734;44.792;20.482;2023-07-29T12:10:38;5.93;;;2.95;;
21152;SDS011;10734;44.792;20.482;2023-07-29T12:13:05;6.13;;;2.80;;
21152;SDS011;10734;44.792;20.482;2023-07-29T12:15:34;6.90;;;2.90;;
21152;SDS011;10734;44.792;20.482;2023-07-29T12:18:01;3.38;;;2.97;;
21152;SDS011;10734;44.792;20.482;2023-07-29T12:20:29;4.30;;;2.97;;
21152;SDS011;10734;44.792;20.482;2023-07-29T12:22:56;5.60;;;3.55;;
21152;SDS011;10734;44.792;20.482;2023-07-29T12:25:25;5.53;;;2.95;;
21152;SDS011;10734;44.792;20.482;2023-07-29T12:27:52;4.97;;;3.40;;
21152;SDS011;10734;44.792;20.482;2023-07-29T12:30:20;3.70;;;3.22;;
21152;SDS011;10734;44.792;20.482;2023-07-29T12:32:48;5.80;;;3.42;;
21152;SDS011;10734;44.792;20.482;2023-07-29T12:35:15;7.53;;;3.20;;
21152;SDS011;10734;44.792;20.482;2023-07-29T12:37:41;5.57;;;3.08;;
21152;SDS011;10734;44.792;20.482;2023-07-29T12:40:31;7.63;;;3.20;;
21152;SDS011;10734;44.792;20.482;2023-07-29T12:42:56;5.80;;;3.03;;
21152;SDS011;10734;44.792;20.482;2023-07-29T12:45:23;5.43;;;3.40;;
21152;SDS011;10734;44.792;20.482;2023-07-29T12:47:53;6.57;;;3.30;;
21152;SDS011;10734;44.792;20.482;2023-07-29T12:50:20;6.07;;;3.17;;
21152;SDS011;10734;44.792;20.482;2023-07-29T12:52:47;4.55;;;3.20;;
21152;SDS011;10734;44.792;20.482;2023-07-29T12:55:14;7.25;;;3.50;;
21152;SDS011;10734;44.792;20.482;2023-07-29T12:57:43;4.88;;;3.05;;
21152;SDS011;10734;44.792;20.482;2023-07-29T13:00:10;3.40;;;2.72;;
21152;SDS011;10734;44.792;20.482;2023-07-29T13:02:37;6.30;;;3.30;;
21152;SDS011;10734;44.792;20.482;2023-07-29T13:05:04;6.40;;;3.25;;
21152;SDS011;10734;44.792;20.482;2023-07-29T13:07:32;5.15;;;3.33;;
21152;SDS011;10734;44.792;20.482;2023-07-29T13:09:59;5.35;;;3.65;;
21152;SDS011;10734;44.792;20.482;2023-07-29T13:12:26;6.95;;;3.45;;
21152;SDS011;10734;44.792;20.482;2023-07-29T13:14:54;7.63;;;3.50;;
21152;SDS011;10734;44.792;20.482;2023-07-29T13:17:21;3.78;;;3.20;;
21152;SDS011;10734;44.792;20.482;2023-07-29T13:19:48;5.85;;;3.50;;
21152;SDS011;10734;44.792;20.482;2023-07-29T13:22:16;7.25;;;3.53;;
21152;SDS011;10734;44.792;20.482;2023-07-29T13:24:43;5.53;;;3.40;;
21152;SDS011;10734;44.792;20.482;2023-07-29T13:27:09;5.53;;;3.78;;
21152;SDS011;10734;44.792;20.482;2023-07-29T13:29:36;5.82;;;3.40;;
21152;SDS011;10734;44.792;20.482;2023-07-29T13:32:03;6.70;;;3.35;;
21152;SDS011;10734;44.792;20.482;2023-07-29T13:34:30;5.90;;;3.88;;
21152;SDS011;10734;44.792;20.482;2023-07-29T13:37:00;5.17;;;3.30;;
21152;SDS011;10734;44.792;20.482;2023-07-29T13:39:27;3.60;;;3.25;;
21152;SDS011;10734;44.792;20.482;2023-07-29T13:41:54;6.75;;;3.58;;
21152;SDS011;10734;44.792;20.482;2023-07-29T13:44:21;4.97;;;3.45;;
21152;SDS011;10734;44.792;20.482;2023-07-29T13:46:47;4.93;;;3.47;;
21152;SDS011;10734;44.792;20.482;2023-07-29T13:49:14;9.43;;;3.35;;
21152;SDS011;10734;44.792;20.482;2023-07-29T13:51:41;7.68;;;3.33;;
21152;SDS011;10734;44.792;20.482;2023-07-29T13:54:09;7.00;;;3.70;;
21152;SDS011;10734;44.792;20.482;2023-07-29T13:56:35;7.18;;;3.10;;
21152;SDS011;10734;44.792;20.482;2023-07-29T13:59:02;5.57;;;3.40;;
21152;SDS011;10734;44.792;20.482;2023-07-29T14:01:29;4.63;;;3.38;;
21152;SDS011;10734;44.792;20.482;2023-07-29T14:03:56;8.73;;;3.90;;
21152;SDS011;10734;44.792;20.482;2023-07-29T14:06:23;5.32;;;3.33;;
21152;SDS011;10734;44.792;20.482;2023-07-29T14:09:09;3.70;;;2.90;;
21152;SDS011;10734;44.792;20.482;2023-07-29T14:11:36;5.28;;;2.88;;
21152;SDS011;10734;44.792;20.482;2023-07-29T14:14:03;3.33;;;2.80;;
21152;SDS011;10734;44.792;20.482;2023-07-29T14:16:30;5.55;;;3.20;;
21152;SDS011;10734;44.792;20.482;2023-07-29T14:18:57;5.20;;;3.20;;
21152;SDS011;10734;44.792;20.482;2023-07-29T14:21:24;4.55;;;2.92;;
21152;SDS011;10734;44.792;20.482;2023-07-29T14:23:51;7.38;;;3.05;;
21152;SDS011;10734;44.792;20.482;2023-07-29T14:26:17;3.25;;;2.55;;
21152;SDS011;10734;44.792;20.482;2023-07-29T14:28:44;6.00;;;3.50;;
21152;SDS011;10734;44.792;20.482;2023-07-29T14:31:11;7.68;;;3.13;;
21152;SDS011;10734;44.792;20.482;2023-07-29T14:33:38;3.30;;;2.75;;
21152;SDS011;10734;44.792;20.482;2023-07-29T14:36:04;4.63;;;2.78;;
21152;SDS011;10734;44.792;20.482;2023-07-29T14:38:34;5.32;;;3.00;;
21152;SDS011;10734;44.792;20.482;2023-07-29T14:41:02;4.70;;;3.50;;
21152;SDS011;10734;44.792;20.482;2023-07-29T14:43:30;4.57;;;2.97;;
21152;SDS011;10734;44.792;20.482;2023-07-29T14:45:57;3.50;;;2.95;;